createdAt,value
2019-03-19T00:00:25.859Z,85.86
2019-03-19T00:02:55.401Z,85.91
2019-03-19T00:05:24.922Z,85.80
2019-03-19T00:07:54.451Z,85.77
2019-03-19T00:10:24.048Z,85.68
2019-03-19T00:12:53.565Z,85.59
2019-03-19T00:15:23.172Z,85.54
2019-03-19T00:17:52.716Z,85.54
2019-03-19T00:20:22.232Z,85.57
2019-03-19T00:22:51.763Z,85.71
2019-03-19T00:25:29.338Z,85.82
2019-03-19T00:27:52.754Z,85.98
2019-03-19T00:30:22.274Z,86.18
2019-03-19T00:32:51.809Z,86.43
2019-03-19T00:35:21.399Z,86.64
2019-03-19T00:37:50.920Z,86.82
2019-03-19T00:40:20.468Z,86.88
2019-03-19T00:42:49.990Z,86.85
2019-03-19T00:45:19.519Z,86.69
2019-03-19T00:47:49.065Z,86.49
2019-03-19T00:50:18.666Z,86.30
2019-03-19T00:52:48.219Z,86.16
2019-03-19T00:55:18.319Z,86.10
2019-03-19T00:57:47.836Z,86.07
2019-03-19T01:00:20.150Z,86.03
2019-03-19T01:02:49.694Z,86.15
2019-03-19T01:05:19.382Z,86.36
2019-03-19T01:07:48.967Z,86.68
2019-03-19T01:10:18.807Z,86.97
2019-03-19T01:12:48.630Z,87.24
2019-03-19T01:15:18.305Z,87.55
2019-03-19T01:17:47.846Z,87.80
2019-03-19T01:20:17.898Z,87.91
2019-03-19T01:22:47.456Z,87.75
2019-03-19T01:25:17.068Z,87.53
2019-03-19T01:27:46.882Z,87.33
2019-03-19T01:30:17.510Z,87.18
2019-03-19T01:32:47.412Z,87.11
2019-03-19T01:35:16.912Z,87.02
2019-03-19T01:37:46.434Z,86.83
2019-03-19T01:40:15.985Z,86.66
2019-03-19T01:42:45.573Z,86.54
2019-03-19T01:45:15.425Z,86.44
2019-03-19T01:47:45.036Z,86.28
2019-03-19T01:50:15.959Z,86.19
2019-03-19T01:52:45.542Z,86.08
2019-03-19T01:55:16.091Z,85.96
2019-03-19T01:57:45.602Z,85.87
2019-03-19T02:00:19.426Z,85.81
2019-03-19T02:02:48.975Z,85.64
2019-03-19T02:05:18.827Z,85.44
2019-03-19T02:07:48.338Z,85.40
2019-03-19T02:10:17.880Z,85.34
2019-03-19T02:12:47.429Z,85.23
2019-03-19T02:15:18.582Z,85.21
2019-03-19T02:17:48.159Z,85.16
2019-03-19T02:20:18.725Z,85.08
2019-03-19T02:22:48.263Z,85.01
2019-03-19T02:25:17.794Z,84.94
2019-03-19T02:27:47.333Z,85.07
2019-03-19T02:30:17.709Z,85.14
2019-03-19T02:32:47.394Z,85.11
2019-03-19T02:35:16.902Z,85.04
2019-03-19T02:37:46.435Z,85.11
2019-03-19T02:40:17.467Z,85.13
2019-03-19T02:42:46.971Z,85.26
2019-03-19T02:45:16.762Z,85.31
2019-03-19T02:47:46.295Z,85.36
2019-03-19T02:50:17.441Z,85.57
2019-03-19T02:52:46.948Z,85.83
2019-03-19T02:55:16.616Z,86.16
2019-03-19T02:57:46.151Z,86.43
2019-03-19T03:00:19.344Z,86.59
2019-03-19T03:02:49.032Z,86.68
2019-03-19T03:05:22.221Z,86.73
2019-03-19T03:07:51.740Z,86.90
2019-03-19T03:10:21.289Z,87.08
2019-03-19T03:12:50.804Z,87.20
2019-03-19T03:15:20.567Z,87.44
2019-03-19T03:17:50.354Z,87.76
2019-03-19T03:20:19.927Z,88.06
2019-03-19T03:22:49.449Z,88.28
2019-03-19T03:25:19.368Z,88.52
2019-03-19T03:27:48.881Z,88.79
2019-03-19T03:30:22.669Z,88.94
2019-03-19T03:32:52.342Z,89.00
2019-03-19T03:35:21.884Z,89.00
2019-03-19T03:37:51.379Z,89.00
2019-03-19T03:40:21.552Z,89.04
2019-03-19T03:42:51.068Z,89.12
2019-03-19T03:45:21.335Z,89.06
2019-03-19T03:47:50.865Z,88.96
2019-03-19T03:50:20.861Z,88.89
2019-03-19T03:52:50.378Z,88.89
2019-03-19T03:55:20.974Z,88.86
2019-03-19T03:57:50.515Z,88.75
2019-03-19T04:00:24.100Z,88.70
2019-03-19T04:02:53.684Z,88.77
2019-03-19T04:05:23.217Z,88.65
2019-03-19T04:07:52.747Z,88.57
2019-03-19T04:10:22.353Z,88.41
2019-03-19T04:12:51.882Z,88.26
2019-03-19T04:15:21.561Z,88.14
2019-03-19T04:17:51.098Z,88.02
2019-03-19T04:20:20.624Z,87.95
2019-03-19T04:22:50.147Z,87.88
2019-03-19T04:25:20.210Z,87.88
2019-03-19T04:27:49.728Z,87.84
2019-03-19T04:30:22.836Z,87.78
2019-03-19T04:32:52.603Z,87.76
2019-03-19T04:35:22.132Z,87.75
2019-03-19T04:37:51.718Z,87.71
2019-03-19T04:40:21.343Z,87.69
2019-03-19T04:42:50.864Z,87.68
2019-03-19T04:45:20.455Z,87.63
2019-03-19T04:47:50.047Z,87.57
2019-03-19T04:50:19.638Z,87.48
2019-03-19T04:52:49.249Z,87.47
2019-03-19T04:55:19.379Z,87.40
2019-03-19T04:57:48.891Z,87.32
2019-03-19T05:00:19.528Z,87.24
2019-03-19T05:02:49.076Z,87.06
2019-03-19T05:05:18.664Z,86.88
2019-03-19T05:07:48.182Z,86.82
2019-03-19T05:10:18.748Z,86.79
2019-03-19T05:12:48.268Z,86.76
2019-03-19T05:15:17.793Z,86.80
2019-03-19T05:17:47.321Z,86.82
2019-03-19T05:20:18.246Z,86.81
2019-03-19T05:22:47.796Z,86.81
2019-03-19T05:25:17.337Z,86.77
2019-03-19T05:27:46.861Z,86.65
2019-03-19T05:30:19.177Z,86.56
2019-03-19T05:32:48.724Z,86.56
2019-03-19T05:35:18.240Z,86.42
2019-03-19T05:37:47.770Z,86.36
2019-03-19T05:40:18.814Z,86.34
2019-03-19T05:42:48.337Z,86.35
2019-03-19T05:45:18.295Z,86.35
2019-03-19T05:47:48.025Z,86.32
2019-03-19T05:50:20.159Z,86.25
2019-03-19T05:52:49.672Z,86.18
2019-03-19T05:55:19.305Z,86.13
2019-03-19T05:57:50.349Z,86.00
2019-03-19T06:00:22.666Z,85.88
2019-03-19T06:02:52.238Z,85.73
2019-03-19T06:05:21.779Z,85.57
2019-03-19T06:07:51.518Z,85.52
2019-03-19T06:10:21.693Z,85.46
2019-03-19T06:12:51.215Z,85.32
2019-03-19T06:15:20.747Z,85.19
2019-03-19T06:17:50.477Z,85.09
2019-03-19T06:20:20.902Z,85.01
2019-03-19T06:22:50.441Z,85.00
2019-03-19T06:25:20.047Z,84.86
2019-03-19T06:27:59.964Z,84.70
2019-03-19T06:30:23.492Z,84.35
2019-03-19T06:32:53.341Z,84.09
2019-03-19T06:35:23.020Z,83.89
2019-03-19T06:37:52.547Z,83.62
2019-03-19T06:40:23.209Z,83.38
2019-03-19T06:42:52.744Z,83.04
2019-03-19T06:45:23.472Z,82.82
2019-03-19T06:47:53.224Z,82.48
2019-03-19T06:50:23.331Z,82.22
2019-03-19T06:52:52.861Z,81.92
2019-03-19T06:55:23.090Z,81.42
2019-03-19T06:57:52.620Z,81.08
2019-03-19T07:00:23.665Z,80.95
2019-03-19T07:02:53.633Z,80.85
2019-03-19T07:05:23.598Z,80.86
2019-03-19T07:07:53.173Z,80.71
2019-03-19T07:10:23.343Z,80.38
2019-03-19T07:12:52.850Z,79.63
2019-03-19T07:15:23.622Z,78.48
2019-03-19T07:17:53.663Z,77.18
2019-03-19T07:20:28.809Z,75.43
2019-03-19T07:22:58.364Z,73.24
2019-03-19T07:25:28.334Z,70.78
2019-03-19T07:27:57.871Z,69.21
2019-03-19T07:30:28.255Z,68.60
2019-03-19T07:32:58.058Z,68.69
2019-03-19T07:35:27.579Z,68.93
2019-03-19T07:37:57.093Z,69.04
2019-03-19T07:40:26.644Z,69.20
2019-03-19T07:42:56.156Z,68.87
2019-03-19T07:45:26.619Z,68.53
2019-03-19T07:47:56.323Z,67.99
2019-03-19T07:50:26.222Z,67.69
2019-03-19T07:52:55.819Z,67.03
2019-03-19T07:55:25.367Z,66.32
2019-03-19T07:57:54.909Z,64.68
2019-03-19T08:00:24.674Z,63.13
2019-03-19T08:02:54.574Z,62.25
2019-03-19T08:05:32.487Z,61.71
2019-03-19T08:07:55.437Z,61.49
2019-03-19T08:10:25.095Z,61.30
2019-03-19T08:12:54.674Z,61.22
2019-03-19T08:15:24.284Z,61.10
2019-03-19T08:17:53.862Z,60.73
2019-03-19T08:20:23.431Z,59.26
2019-03-19T08:22:52.958Z,57.47
2019-03-19T08:25:22.601Z,55.72
2019-03-19T08:27:52.164Z,54.37
2019-03-19T08:30:29.315Z,51.68
2019-03-19T08:32:58.882Z,50.07
2019-03-19T08:35:28.418Z,49.17
2019-03-19T08:37:58.139Z,49.13
2019-03-19T08:40:27.685Z,49.99
2019-03-19T08:42:58.265Z,50.06
2019-03-19T08:45:28.372Z,50.19
2019-03-19T08:48:02.257Z,50.53
2019-03-19T08:50:31.799Z,49.54
2019-03-19T08:53:01.362Z,49.29
2019-03-19T08:55:30.969Z,48.09
2019-03-19T08:58:00.508Z,47.59
2019-03-19T09:00:30.438Z,47.85
2019-03-19T09:02:59.953Z,48.05
2019-03-19T09:05:29.595Z,47.98
2019-03-19T09:07:59.290Z,47.55
2019-03-19T09:10:28.795Z,47.89
2019-03-19T09:12:58.332Z,47.55
2019-03-19T09:15:30.964Z,47.32
2019-03-19T09:18:00.527Z,47.10
2019-03-19T09:20:30.048Z,46.80
2019-03-19T09:22:59.585Z,47.11
2019-03-19T09:25:29.098Z,47.92
2019-03-19T09:27:58.623Z,48.51
2019-03-19T09:30:28.159Z,48.97
2019-03-19T09:32:57.680Z,49.17
2019-03-19T09:35:27.199Z,49.80
2019-03-19T09:37:58.908Z,50.50
2019-03-19T09:40:28.135Z,50.73
2019-03-19T09:42:57.654Z,49.85
2019-03-19T09:45:27.370Z,48.05
2019-03-19T09:47:56.876Z,47.00
2019-03-19T09:50:27.200Z,47.28
2019-03-19T09:52:56.809Z,47.62
2019-03-19T09:55:26.328Z,47.55
2019-03-19T09:57:56.148Z,46.22
2019-03-19T10:00:26.101Z,44.29
2019-03-19T10:02:55.694Z,43.14
2019-03-19T10:05:25.299Z,41.89
2019-03-19T10:07:55.729Z,41.20
2019-03-19T10:10:25.745Z,39.76
2019-03-19T10:12:55.295Z,38.15
2019-03-19T10:15:25.433Z,36.85
2019-03-19T10:17:54.967Z,37.14
2019-03-19T10:20:26.000Z,37.51
2019-03-19T10:22:55.519Z,37.41
2019-03-19T10:25:25.064Z,36.85
2019-03-19T10:27:54.613Z,35.92
2019-03-19T10:30:25.265Z,35.12
2019-03-19T10:32:54.883Z,34.31
2019-03-19T10:35:24.373Z,33.91
2019-03-19T10:37:54.012Z,33.97
2019-03-19T10:40:23.795Z,34.83
2019-03-19T10:42:53.363Z,35.21
2019-03-19T10:45:24.296Z,35.48
2019-03-19T10:47:53.894Z,35.20
2019-03-19T10:50:28.519Z,35.31
2019-03-19T10:52:58.490Z,35.18
2019-03-19T10:55:27.993Z,35.11
2019-03-19T10:57:57.520Z,35.12
2019-03-19T11:00:28.005Z,35.20
2019-03-19T11:02:57.490Z,35.84
2019-03-19T11:05:27.192Z,36.78
2019-03-19T11:07:56.718Z,36.95
2019-03-19T11:10:26.468Z,37.32
2019-03-19T11:12:55.977Z,38.00
2019-03-19T11:15:31.483Z,38.76
2019-03-19T11:18:00.536Z,38.55
2019-03-19T11:20:30.053Z,38.61
2019-03-19T11:22:59.588Z,38.78
2019-03-19T11:25:33.083Z,39.40
2019-03-19T11:28:02.630Z,40.47
2019-03-19T11:30:33.110Z,41.58
2019-03-19T11:33:02.688Z,42.58
2019-03-19T11:35:32.205Z,43.54
2019-03-19T11:38:01.736Z,44.25
2019-03-19T11:40:31.250Z,45.06
2019-03-19T11:43:00.757Z,45.89
2019-03-19T11:45:30.733Z,46.73
2019-03-19T11:48:00.253Z,47.48
2019-03-19T11:50:33.414Z,47.98
2019-03-19T11:53:02.532Z,48.37
2019-03-19T11:55:32.052Z,48.68
2019-03-19T11:58:01.568Z,48.86
2019-03-19T12:00:45.388Z,49.07
2019-03-19T12:03:16.342Z,49.16
2019-03-19T12:05:46.302Z,49.06
2019-03-19T12:08:15.835Z,49.08
2019-03-19T12:10:45.367Z,48.97
2019-03-19T12:13:15.220Z,48.62
2019-03-19T12:15:44.789Z,48.08
2019-03-19T12:18:14.306Z,47.20
2019-03-19T12:20:43.814Z,46.21
2019-03-19T12:23:13.331Z,45.75
2019-03-19T12:25:42.846Z,45.00
2019-03-19T12:28:12.363Z,44.50
2019-03-19T12:30:41.897Z,44.77
2019-03-19T12:33:11.412Z,44.94
2019-03-19T12:35:40.933Z,45.12
2019-03-19T12:38:10.607Z,45.17
2019-03-19T12:40:40.120Z,45.22
2019-03-19T12:43:09.638Z,44.73
2019-03-19T12:45:39.170Z,44.47
2019-03-19T12:48:08.703Z,44.13
2019-03-19T12:50:38.219Z,44.00
2019-03-19T12:53:07.967Z,44.27
2019-03-19T12:55:37.477Z,44.44
2019-03-19T12:58:07.196Z,44.60
2019-03-19T13:00:36.726Z,44.96
2019-03-19T13:03:06.783Z,45.16
2019-03-19T13:05:36.286Z,45.37
2019-03-19T13:08:05.911Z,45.61
2019-03-19T13:10:35.418Z,45.80
2019-03-19T13:13:05.294Z,45.70
2019-03-19T13:15:35.176Z,45.72
2019-03-19T13:18:04.948Z,45.49
2019-03-19T13:20:34.473Z,45.14
2019-03-19T13:23:04.181Z,44.75
2019-03-19T13:25:33.700Z,44.43
2019-03-19T13:28:03.220Z,44.20
2019-03-19T13:30:44.100Z,44.15
2019-03-19T13:33:04.789Z,44.38
2019-03-19T13:35:34.297Z,44.58
2019-03-19T13:38:03.983Z,44.65
2019-03-19T13:40:33.570Z,44.66
2019-03-19T13:43:03.091Z,44.73
2019-03-19T13:45:32.791Z,44.81
2019-03-19T13:48:02.297Z,44.96
2019-03-19T13:50:31.810Z,45.27
2019-03-19T13:53:01.342Z,45.15
2019-03-19T13:55:30.871Z,44.97
2019-03-19T13:58:00.384Z,44.96
2019-03-19T14:00:30.353Z,45.01
2019-03-19T14:02:59.882Z,45.14
2019-03-19T14:05:29.393Z,45.36
2019-03-19T14:07:59.004Z,45.41
2019-03-19T14:10:28.559Z,45.49
2019-03-19T14:12:58.067Z,45.52
2019-03-19T14:15:29.075Z,45.93
2019-03-19T14:17:58.597Z,46.41
2019-03-19T14:20:28.097Z,46.83
2019-03-19T14:22:57.710Z,46.91
2019-03-19T14:25:27.227Z,46.82
2019-03-19T14:27:56.730Z,46.83
2019-03-19T14:30:27.799Z,46.54
2019-03-19T14:32:57.369Z,46.50
2019-03-19T14:35:36.884Z,46.61
2019-03-19T14:37:58.343Z,46.78
2019-03-19T14:40:28.309Z,46.94
2019-03-19T14:43:01.017Z,47.03
2019-03-19T14:45:29.111Z,47.26
2019-03-19T14:47:58.617Z,47.41
2019-03-19T14:50:28.213Z,47.57
2019-03-19T14:52:57.737Z,47.77
2019-03-19T14:55:27.250Z,47.98
2019-03-19T14:57:56.766Z,48.17
2019-03-19T15:00:26.306Z,47.99
2019-03-19T15:02:55.826Z,48.09
2019-03-19T15:05:25.339Z,48.30
2019-03-19T15:07:54.848Z,48.47
2019-03-19T15:10:25.098Z,48.54
2019-03-19T15:12:54.598Z,48.55
2019-03-19T15:15:24.369Z,48.67
2019-03-19T15:17:53.877Z,48.87
2019-03-19T15:20:28.537Z,48.97
2019-03-19T15:22:58.079Z,49.14
2019-03-19T15:25:27.581Z,49.07
2019-03-19T15:27:57.091Z,49.07
2019-03-19T15:30:26.614Z,49.08
2019-03-19T15:32:56.140Z,49.03
2019-03-19T15:35:25.645Z,49.04
2019-03-19T15:37:55.290Z,48.99
2019-03-19T15:40:24.794Z,49.03
2019-03-19T15:42:54.295Z,49.05
2019-03-19T15:45:27.786Z,49.12
2019-03-19T15:47:57.285Z,49.27
2019-03-19T15:50:26.862Z,49.29
2019-03-19T15:52:56.426Z,49.44
2019-03-19T15:55:25.951Z,49.56
2019-03-19T15:57:55.479Z,49.70
2019-03-19T16:00:25.354Z,49.90
2019-03-19T16:02:54.798Z,50.17
2019-03-19T16:05:24.310Z,50.32
2019-03-19T16:07:53.953Z,50.87
2019-03-19T16:10:23.459Z,51.62
2019-03-19T16:12:52.980Z,51.99
2019-03-19T16:15:23.603Z,52.31
2019-03-19T16:17:53.181Z,52.49
2019-03-19T16:20:23.526Z,52.71
2019-03-19T16:22:53.139Z,52.92
2019-03-19T16:25:22.648Z,53.16
2019-03-19T16:27:52.231Z,53.26
2019-03-19T16:30:22.025Z,53.27
2019-03-19T16:32:51.600Z,53.23
2019-03-19T16:35:21.152Z,53.28
2019-03-19T16:37:50.778Z,53.27
2019-03-19T16:40:22.652Z,53.39
2019-03-19T16:42:52.184Z,53.52
2019-03-19T16:45:22.053Z,53.62
2019-03-19T16:47:51.547Z,53.83
2019-03-19T16:50:24.565Z,54.12
2019-03-19T16:52:54.246Z,54.52
2019-03-19T16:55:23.829Z,54.98
2019-03-19T16:57:53.332Z,55.46
2019-03-19T17:00:25.154Z,55.97
2019-03-19T17:02:54.663Z,56.51
2019-03-19T17:05:24.232Z,57.06
2019-03-19T17:07:54.063Z,57.51
2019-03-19T17:10:29.336Z,57.92
2019-03-19T17:12:58.890Z,58.33
2019-03-19T17:15:28.398Z,58.75
2019-03-19T17:17:57.955Z,59.17
2019-03-19T17:20:27.469Z,59.60
2019-03-19T17:22:56.988Z,59.96
2019-03-19T17:25:27.195Z,60.23
2019-03-19T17:27:56.746Z,60.56
2019-03-19T17:30:31.823Z,60.87
2019-03-19T17:33:01.347Z,61.22
2019-03-19T17:35:31.014Z,61.53
2019-03-19T17:38:00.521Z,61.82
2019-03-19T17:40:40.549Z,62.16
2019-03-19T17:43:01.288Z,62.50
2019-03-19T17:45:30.795Z,62.69
2019-03-19T17:48:00.578Z,62.94
2019-03-19T17:50:42.702Z,63.29
2019-03-19T17:53:12.437Z,63.64
2019-03-19T17:55:41.941Z,64.00
2019-03-19T17:58:11.443Z,64.34
2019-03-19T18:00:45.638Z,64.64
2019-03-19T18:03:15.170Z,64.85
2019-03-19T18:05:44.689Z,65.03
2019-03-19T18:08:14.340Z,65.11
2019-03-19T18:10:43.851Z,65.20
2019-03-19T18:13:13.353Z,65.34
2019-03-19T18:15:42.878Z,65.53
2019-03-19T18:18:12.388Z,65.73
2019-03-19T18:20:41.886Z,65.86
2019-03-19T18:23:11.427Z,66.00
2019-03-19T18:25:40.928Z,66.15
2019-03-19T18:28:10.418Z,66.26
2019-03-19T18:30:39.968Z,66.44
2019-03-19T18:33:09.480Z,66.69
2019-03-19T18:35:38.991Z,66.93
2019-03-19T18:38:08.603Z,67.11
2019-03-19T18:40:38.242Z,67.27
2019-03-19T18:43:07.762Z,67.40
2019-03-19T18:45:37.537Z,67.57
2019-03-19T18:48:07.045Z,67.75
2019-03-19T18:50:36.538Z,67.93
2019-03-19T18:53:06.363Z,68.04
2019-03-19T18:55:35.869Z,68.18
2019-03-19T18:58:05.368Z,68.46
2019-03-19T19:00:35.286Z,68.78
2019-03-19T19:03:04.834Z,69.08
2019-03-19T19:05:34.663Z,69.17
2019-03-19T19:08:04.199Z,69.36
2019-03-19T19:10:33.720Z,69.57
2019-03-19T19:13:03.220Z,69.82
2019-03-19T19:15:32.910Z,70.09
2019-03-19T19:18:02.414Z,70.35
2019-03-19T19:20:31.930Z,70.58
2019-03-19T19:23:02.874Z,70.74
2019-03-19T19:25:32.773Z,70.93
2019-03-19T19:28:02.300Z,71.08
2019-03-19T19:30:33.509Z,71.26
2019-03-19T19:33:03.018Z,71.42
2019-03-19T19:35:32.580Z,71.58
2019-03-19T19:38:03.325Z,71.75
2019-03-19T19:40:33.218Z,71.92
2019-03-19T19:43:02.708Z,72.10
2019-03-19T19:45:32.245Z,72.28
2019-03-19T19:48:01.746Z,72.55
2019-03-19T19:50:31.267Z,72.73
2019-03-19T19:53:00.948Z,72.73
2019-03-19T19:55:30.467Z,72.73
2019-03-19T19:57:59.966Z,72.78
2019-03-19T20:00:29.660Z,72.84
2019-03-19T20:02:59.182Z,72.86
2019-03-19T20:05:28.680Z,72.93
2019-03-19T20:07:58.196Z,72.95
2019-03-19T20:10:28.481Z,73.04
2019-03-19T20:12:57.986Z,73.15
2019-03-19T20:15:27.541Z,73.24
2019-03-19T20:17:57.052Z,73.42
2019-03-19T20:20:30.139Z,73.58
2019-03-19T20:22:59.821Z,73.73
2019-03-19T20:25:29.367Z,73.77
2019-03-19T20:27:58.900Z,73.68
2019-03-19T20:30:29.162Z,73.58
2019-03-19T20:32:58.671Z,73.55
2019-03-19T20:35:28.243Z,73.58
2019-03-19T20:37:57.868Z,73.60
2019-03-19T20:40:27.376Z,73.62
2019-03-19T20:42:56.874Z,73.70
2019-03-19T20:45:29.723Z,73.82
2019-03-19T20:47:59.296Z,73.96
2019-03-19T20:50:38.271Z,74.15
2019-03-19T20:53:07.843Z,74.35
2019-03-19T20:55:37.346Z,74.53
2019-03-19T20:58:07.292Z,74.62
2019-03-19T21:00:36.826Z,74.55
2019-03-19T21:03:06.716Z,74.55
2019-03-19T21:05:36.260Z,74.72
2019-03-19T21:08:05.949Z,74.91
2019-03-19T21:10:35.464Z,75.11
2019-03-19T21:13:05.566Z,75.20
2019-03-19T21:15:35.052Z,75.38
2019-03-19T21:18:04.636Z,75.41
2019-03-19T21:20:34.157Z,75.44
2019-03-19T21:23:03.667Z,75.54
2019-03-19T21:25:33.162Z,75.57
2019-03-19T21:28:13.235Z,75.69
2019-03-19T21:30:33.914Z,75.84
2019-03-19T21:33:03.417Z,75.87
2019-03-19T21:35:32.952Z,75.94
2019-03-19T21:38:02.461Z,76.02
2019-03-19T21:40:31.989Z,76.02
2019-03-19T21:43:01.833Z,76.03
2019-03-19T21:45:31.341Z,76.11
2019-03-19T21:48:00.866Z,76.14
2019-03-19T21:50:30.385Z,76.19
2019-03-19T21:52:59.899Z,76.24
2019-03-19T21:55:29.397Z,76.23
2019-03-19T21:57:58.921Z,76.29
2019-03-19T22:00:28.521Z,76.43
2019-03-19T22:02:58.023Z,76.52
2019-03-19T22:05:27.575Z,76.57
2019-03-19T22:07:57.060Z,76.67
2019-03-19T22:10:26.559Z,76.66
2019-03-19T22:12:56.277Z,76.71
2019-03-19T22:15:26.719Z,76.75
2019-03-19T22:17:56.365Z,76.75
2019-03-19T22:20:26.327Z,76.79
2019-03-19T22:22:55.826Z,76.93
2019-03-19T22:25:25.339Z,77.11
2019-03-19T22:27:55.255Z,77.24
2019-03-19T22:30:24.760Z,77.43
2019-03-19T22:32:54.263Z,77.64
2019-03-19T22:35:23.786Z,77.85
2019-03-19T22:37:53.295Z,78.01
2019-03-19T22:40:22.798Z,78.01
2019-03-19T22:42:52.389Z,78.07
2019-03-19T22:45:21.897Z,78.09
2019-03-19T22:47:51.403Z,78.04
2019-03-19T22:50:21.114Z,78.02
2019-03-19T22:52:50.619Z,77.98
2019-03-19T22:55:28.472Z,77.99
2019-03-19T22:57:51.365Z,77.96
2019-03-19T23:00:35.754Z,77.95
2019-03-19T23:03:07.462Z,77.95
2019-03-19T23:05:37.392Z,78.00
2019-03-19T23:08:06.894Z,78.05
2019-03-19T23:10:36.775Z,78.17
2019-03-19T23:13:06.431Z,78.21
2019-03-19T23:15:36.106Z,78.30
2019-03-19T23:18:06.116Z,78.42
2019-03-19T23:20:35.786Z,78.50
2019-03-19T23:23:05.801Z,78.61
2019-03-19T23:25:35.494Z,78.73
2019-03-19T23:28:05.218Z,78.75
2019-03-19T23:30:34.730Z,78.86
2019-03-19T23:33:04.346Z,78.97
2019-03-19T23:35:33.843Z,79.18
2019-03-19T23:38:03.349Z,79.38
2019-03-19T23:40:33.033Z,79.48
2019-03-19T23:43:02.546Z,79.56
2019-03-19T23:45:32.305Z,79.68
2019-03-19T23:48:02.171Z,79.78
2019-03-19T23:50:31.662Z,79.88
2019-03-19T23:53:01.250Z,79.94
2019-03-19T23:55:30.755Z,80.03
2019-03-19T23:58:00.281Z,80.10
